sensor_id;sensor_type;location;lat;lon;timestamp;temperature;humidity
41987;DHT22;28361;50.740;7.084;2023-08-08T10:08:48;23.00;1.00
41987;DHT22;28361;50.740;7.084;2023-08-08T10:11:14;19.80;1.00
41987;DHT22;28361;50.740;7.084;2023-08-08T10:13:47;19.40;1.00
41987;DHT22;28361;50.740;7.084;2023-08-08T10:16:15;19.30;1.00
41987;DHT22;28361;50.740;7.084;2023-08-08T10:18:41;19.70;1.00
41987;DHT22;28361;50.740;7.084;2023-08-08T10:21:07;20.00;1.00
41987;DHT22;28361;50.740;7.084;2023-08-08T10:23:38;20.00;1.00
41987;DHT22;28361;50.740;7.084;2023-08-08T10:26:16;19.80;1.00
41987;DHT22;28361;50.740;7.084;2023-08-08T10:28:55;19.90;1.00
41987;DHT22;28361;50.740;7.084;2023-08-08T10:31:22;20.20;1.00
41987;DHT22;28361;50.740;7.084;2023-08-08T10:33:47;20.40;1.00
41987;DHT22;28361;50.740;7.084;2023-08-08T12:44:11;20.20;1.00
41987;DHT22;28361;50.740;7.084;2023-08-08T12:46:37;20.30;1.00
41987;DHT22;28361;50.740;7.084;2023-08-08T12:49:03;19.90;1.00
41987;DHT22;28361;50.740;7.084;2023-08-08T12:51:28;19.80;1.00
41987;DHT22;28361;50.740;7.084;2023-08-08T12:53:54;19.80;1.00
41987;DHT22;28361;50.740;7.084;2023-08-08T12:56:20;19.70;1.00
41987;DHT22;28361;50.740;7.084;2023-08-08T12:58:46;19.60;1.00
41987;DHT22;28361;50.740;7.084;2023-08-08T13:01:11;19.60;1.00
41987;DHT22;28361;50.740;7.084;2023-08-08T13:03:37;19.40;1.00
41987;DHT22;28361;50.740;7.084;2023-08-08T13:06:03;19.20;1.00
41987;DHT22;28361;50.740;7.084;2023-08-08T13:08:29;19.00;1.00
41987;DHT22;28361;50.740;7.084;2023-08-08T13:10:54;18.90;1.00
41987;DHT22;28361;50.740;7.084;2023-08-08T13:13:20;18.90;1.00
41987;DHT22;28361;50.740;7.084;2023-08-08T13:15:48;18.90;1.00
41987;DHT22;28361;50.740;7.084;2023-08-08T13:18:14;18.90;1.00
41987;DHT22;28361;50.740;7.084;2023-08-08T13:20:40;18.90;1.00
41987;DHT22;28361;50.740;7.084;2023-08-08T13:23:05;18.80;1.00
41987;DHT22;28361;50.740;7.084;2023-08-08T13:25:31;18.80;1.00
41987;DHT22;28361;50.740;7.084;2023-08-08T13:28:00;18.80;1.00
41987;DHT22;28361;50.740;7.084;2023-08-08T13:30:26;18.80;1.00
41987;DHT22;28361;50.740;7.084;2023-08-08T13:32:52;18.80;1.00
41987;DHT22;28361;50.740;7.084;2023-08-08T13:35:18;18.70;1.00
41987;DHT22;28361;50.740;7.084;2023-08-08T13:37:43;18.90;1.00
41987;DHT22;28361;50.740;7.084;2023-08-08T13:40:11;18.90;1.00
41987;DHT22;28361;50.740;7.084;2023-08-08T13:42:37;19.10;1.00
41987;DHT22;28361;50.740;7.084;2023-08-08T13:45:02;19.20;1.00
41987;DHT22;28361;50.740;7.084;2023-08-08T13:47:28;19.20;1.00
41987;DHT22;28361;50.740;7.084;2023-08-08T13:49:54;19.20;1.00
41987;DHT22;28361;50.740;7.084;2023-08-08T14:16:40;19.00;1.00
41987;DHT22;28361;50.740;7.084;2023-08-08T14:19:05;19.70;1.00
41987;DHT22;28361;50.740;7.084;2023-08-08T14:21:31;19.80;1.00
41987;DHT22;28361;50.740;7.084;2023-08-08T14:23:57;19.90;1.00
41987;DHT22;28361;50.740;7.084;2023-08-08T14:31:14;19.70;1.00
41987;DHT22;28361;50.740;7.084;2023-08-08T14:33:40;18.90;1.00
41987;DHT22;28361;50.740;7.084;2023-08-08T14:36:05;18.70;1.00
